sensor_id;sensor_type;location;lat;lon;timestamp;temperature;humidity
40964;DHT22;26693;51.168;4.138;2022-07-10T00:00:00;18.50;99.90
40964;DHT22;26693;51.168;4.138;2022-07-10T00:01:02;18.40;99.90
40964;DHT22;26693;51.168;4.138;2022-07-10T00:02:03;18.40;99.90
40964;DHT22;26693;51.168;4.138;2022-07-10T00:03:04;18.30;99.90
40964;DHT22;26693;51.168;4.138;2022-07-10T00:04:04;18.20;99.90
40964;DHT22;26693;51.168;4.138;2022-07-10T00:05:05;18.20;99.90
40964;DHT22;26693;51.168;4.138;2022-07-10T00:06:06;18.10;99.90
40964;DHT22;26693;51.168;4.138;2022-07-10T00:07:07;18.00;99.90
40964;DHT22;26693;51.168;4.138;2022-07-10T00:08:08;18.10;99.90
40964;DHT22;26693;51.168;4.138;2022-07-10T00:09:08;18.20;99.90
40964;DHT22;26693;51.168;4.138;2022-07-10T00:10:09;18.20;99.90
40964;DHT22;26693;51.168;4.138;2022-07-10T00:11:09;18.20;99.90
40964;DHT22;26693;51.168;4.138;2022-07-10T00:12:10;18.30;99.90
40964;DHT22;26693;51.168;4.138;2022-07-10T00:13:11;18.20;99.90
40964;DHT22;26693;51.168;4.138;2022-07-10T00:14:11;18.10;99.90
40964;DHT22;26693;51.168;4.138;2022-07-10T00:15:12;18.00;99.90
40964;DHT22;26693;51.168;4.138;2022-07-10T00:16:13;18.10;99.90
40964;DHT22;26693;51.168;4.138;2022-07-10T00:17:14;18.20;99.90
40964;DHT22;26693;51.168;4.138;2022-07-10T00:18:14;18.20;99.90
40964;DHT22;26693;51.168;4.138;2022-07-10T00:19:15;18.30;99.90
40964;DHT22;26693;51.168;4.138;2022-07-10T00:20:15;18.20;99.90
40964;DHT22;26693;51.168;4.138;2022-07-10T00:21:16;18.20;99.90
40964;DHT22;26693;51.168;4.138;2022-07-10T00:22:17;18.10;99.90
40964;DHT22;26693;51.168;4.138;2022-07-10T00:23:17;18.20;99.90
40964;DHT22;26693;51.168;4.138;2022-07-10T00:24:18;18.20;99.90
40964;DHT22;26693;51.168;4.138;2022-07-10T00:25:18;18.30;99.90
40964;DHT22;26693;51.168;4.138;2022-07-10T00:26:19;18.10;99.90
40964;DHT22;26693;51.168;4.138;2022-07-10T00:27:20;18.20;99.90
40964;DHT22;26693;51.168;4.138;2022-07-10T00:28:20;18.20;99.90
40964;DHT22;26693;51.168;4.138;2022-07-10T00:29:21;18.20;99.90
40964;DHT22;26693;51.168;4.138;2022-07-10T00:30:21;18.00;99.90
40964;DHT22;26693;51.168;4.138;2022-07-10T00:31:22;18.10;99.90
40964;DHT22;26693;51.168;4.138;2022-07-10T00:32:23;18.10;99.90
40964;DHT22;26693;51.168;4.138;2022-07-10T00:33:23;18.00;99.90
40964;DHT22;26693;51.168;4.138;2022-07-10T00:34:24;18.10;99.90
40964;DHT22;26693;51.168;4.138;2022-07-10T00:35:24;18.10;99.90
40964;DHT22;26693;51.168;4.138;2022-07-10T00:36:25;18.00;99.90
40964;DHT22;26693;51.168;4.138;2022-07-10T00:37:26;18.00;99.90
40964;DHT22;26693;51.168;4.138;2022-07-10T00:38:26;17.90;99.90
40964;DHT22;26693;51.168;4.138;2022-07-10T00:39:27;17.80;99.90
40964;DHT22;26693;51.168;4.138;2022-07-10T00:40:27;18.00;99.90
40964;DHT22;26693;51.168;4.138;2022-07-10T00:41:28;18.00;99.90
40964;DHT22;26693;51.168;4.138;2022-07-10T00:42:28;18.10;99.90
40964;DHT22;26693;51.168;4.138;2022-07-10T00:43:29;18.00;99.90
40964;DHT22;26693;51.168;4.138;2022-07-10T00:44:29;18.10;99.90
40964;DHT22;26693;51.168;4.138;2022-07-10T00:45:30;18.10;99.90
40964;DHT22;26693;51.168;4.138;2022-07-10T00:46:31;17.60;99.90
40964;DHT22;26693;51.168;4.138;2022-07-10T00:47:31;17.50;99.90
40964;DHT22;26693;51.168;4.138;2022-07-10T00:48:32;17.60;99.90
40964;DHT22;26693;51.168;4.138;2022-07-10T00:49:33;17.80;99.90
40964;DHT22;26693;51.168;4.138;2022-07-10T00:50:33;17.90;99.90
40964;DHT22;26693;51.168;4.138;2022-07-10T00:51:34;18.00;99.90
40964;DHT22;26693;51.168;4.138;2022-07-10T00:52:35;18.00;99.90
40964;DHT22;26693;51.168;4.138;2022-07-10T00:53:38;18.00;99.90
40964;DHT22;26693;51.168;4.138;2022-07-10T00:54:40;17.80;99.90
40964;DHT22;26693;51.168;4.138;2022-07-10T00:55:41;17.70;99.90
40964;DHT22;26693;51.168;4.138;2022-07-10T00:56:43;17.70;99.90
40964;DHT22;26693;51.168;4.138;2022-07-10T00:57:43;17.80;99.90
40964;DHT22;26693;51.168;4.138;2022-07-10T00:58:44;17.70;99.90
40964;DHT22;26693;51.168;4.138;2022-07-10T00:59:45;17.60;99.90
40964;DHT22;26693;51.168;4.138;2022-07-10T01:00:46;17.20;99.90
40964;DHT22;26693;51.168;4.138;2022-07-10T01:01:46;17.10;99.90
40964;DHT22;26693;51.168;4.138;2022-07-10T01:02:47;16.90;99.90
40964;DHT22;26693;51.168;4.138;2022-07-10T01:03:48;16.90;99.90
40964;DHT22;26693;51.168;4.138;2022-07-10T01:04:48;17.00;99.90
40964;DHT22;26693;51.168;4.138;2022-07-10T01:05:49;17.10;99.90
40964;DHT22;26693;51.168;4.138;2022-07-10T01:06:49;17.30;99.90
40964;DHT22;26693;51.168;4.138;2022-07-10T01:07:50;17.50;99.90
40964;DHT22;26693;51.168;4.138;2022-07-10T01:08:50;17.70;99.90
40964;DHT22;26693;51.168;4.138;2022-07-10T01:09:51;17.70;99.90
40964;DHT22;26693;51.168;4.138;2022-07-10T01:10:51;17.80;99.90
40964;DHT22;26693;51.168;4.138;2022-07-10T01:11:52;17.70;99.90
40964;DHT22;26693;51.168;4.138;2022-07-10T01:12:53;17.70;99.90
40964;DHT22;26693;51.168;4.138;2022-07-10T01:13:53;17.80;99.90
40964;DHT22;26693;51.168;4.138;2022-07-10T01:14:54;17.80;99.90
40964;DHT22;26693;51.168;4.138;2022-07-10T01:15:55;17.60;99.90
40964;DHT22;26693;51.168;4.138;2022-07-10T01:16:57;17.60;99.90
40964;DHT22;26693;51.168;4.138;2022-07-10T01:17:58;17.70;99.90
40964;DHT22;26693;51.168;4.138;2022-07-10T01:18:58;17.70;99.90
40964;DHT22;26693;51.168;4.138;2022-07-10T01:20:03;17.70;99.90
40964;DHT22;26693;51.168;4.138;2022-07-10T01:21:04;17.70;99.90
40964;DHT22;26693;51.168;4.138;2022-07-10T01:22:05;17.70;99.90
40964;DHT22;26693;51.168;4.138;2022-07-10T01:23:06;17.60;99.90
40964;DHT22;26693;51.168;4.138;2022-07-10T01:24:08;17.70;99.90
40964;DHT22;26693;51.168;4.138;2022-07-10T01:25:09;17.70;99.90
40964;DHT22;26693;51.168;4.138;2022-07-10T01:26:11;17.70;99.90
40964;DHT22;26693;51.168;4.138;2022-07-10T01:27:11;17.50;99.90
40964;DHT22;26693;51.168;4.138;2022-07-10T01:28:12;17.50;99.90
40964;DHT22;26693;51.168;4.138;2022-07-10T01:29:13;17.50;99.90
40964;DHT22;26693;51.168;4.138;2022-07-10T01:30:13;17.40;99.90
40964;DHT22;26693;51.168;4.138;2022-07-10T01:31:14;17.50;99.90
40964;DHT22;26693;51.168;4.138;2022-07-10T01:32:14;17.40;99.90
40964;DHT22;26693;51.168;4.138;2022-07-10T01:33:15;17.20;99.90
40964;DHT22;26693;51.168;4.138;2022-07-10T01:34:15;17.30;99.90
40964;DHT22;26693;51.168;4.138;2022-07-10T01:35:16;17.40;99.90
40964;DHT22;26693;51.168;4.138;2022-07-10T01:36:17;17.50;99.90
40964;DHT22;26693;51.168;4.138;2022-07-10T01:37:18;17.40;99.90
40964;DHT22;26693;51.168;4.138;2022-07-10T01:38:18;17.20;99.90
40964;DHT22;26693;51.168;4.138;2022-07-10T01:39:19;17.30;99.90
40964;DHT22;26693;51.168;4.138;2022-07-10T01:40:19;17.20;99.90
40964;DHT22;26693;51.168;4.138;2022-07-10T01:41:20;17.00;99.90
40964;DHT22;26693;51.168;4.138;2022-07-10T01:42:20;17.00;99.90
40964;DHT22;26693;51.168;4.138;2022-07-10T01:43:21;17.00;99.90
40964;DHT22;26693;51.168;4.138;2022-07-10T01:44:21;16.80;99.90
40964;DHT22;26693;51.168;4.138;2022-07-10T01:45:22;16.80;99.90
40964;DHT22;26693;51.168;4.138;2022-07-10T01:46:23;16.80;99.90
40964;DHT22;26693;51.168;4.138;2022-07-10T01:47:24;16.90;99.90
40964;DHT22;26693;51.168;4.138;2022-07-10T01:48:26;16.90;99.90
40964;DHT22;26693;51.168;4.138;2022-07-10T01:49:26;16.70;99.90
40964;DHT22;26693;51.168;4.138;2022-07-10T01:50:27;16.70;99.90
40964;DHT22;26693;51.168;4.138;2022-07-10T01:51:27;16.60;99.90
40964;DHT22;26693;51.168;4.138;2022-07-10T01:52:28;16.60;99.90
40964;DHT22;26693;51.168;4.138;2022-07-10T01:53:28;16.70;99.90
40964;DHT22;26693;51.168;4.138;2022-07-10T01:54:29;16.60;99.90
40964;DHT22;26693;51.168;4.138;2022-07-10T01:55:30;16.70;99.90
40964;DHT22;26693;51.168;4.138;2022-07-10T01:56:30;16.70;99.90
40964;DHT22;26693;51.168;4.138;2022-07-10T01:57:31;16.70;99.90
40964;DHT22;26693;51.168;4.138;2022-07-10T01:58:32;16.70;99.90
40964;DHT22;26693;51.168;4.138;2022-07-10T01:59:32;16.80;99.90
40964;DHT22;26693;51.168;4.138;2022-07-10T02:00:33;16.80;99.90
40964;DHT22;26693;51.168;4.138;2022-07-10T02:01:33;16.80;99.90
40964;DHT22;26693;51.168;4.138;2022-07-10T02:02:34;16.70;99.90
40964;DHT22;26693;51.168;4.138;2022-07-10T02:03:35;16.60;99.90
40964;DHT22;26693;51.168;4.138;2022-07-10T02:04:54;16.60;99.90
40964;DHT22;26693;51.168;4.138;2022-07-10T02:05:54;16.50;99.90
40964;DHT22;26693;51.168;4.138;2022-07-10T02:06:55;16.50;99.90
40964;DHT22;26693;51.168;4.138;2022-07-10T02:07:55;16.50;99.90
40964;DHT22;26693;51.168;4.138;2022-07-10T02:08:56;16.50;99.90
40964;DHT22;26693;51.168;4.138;2022-07-10T02:09:56;16.50;99.90
40964;DHT22;26693;51.168;4.138;2022-07-10T02:10:57;16.50;99.90
40964;DHT22;26693;51.168;4.138;2022-07-10T02:11:57;16.40;99.90
40964;DHT22;26693;51.168;4.138;2022-07-10T02:12:58;16.30;99.90
40964;DHT22;26693;51.168;4.138;2022-07-10T02:13:59;16.30;99.90
40964;DHT22;26693;51.168;4.138;2022-07-10T02:14:59;16.40;99.90
40964;DHT22;26693;51.168;4.138;2022-07-10T02:16:02;16.50;99.90
40964;DHT22;26693;51.168;4.138;2022-07-10T02:17:03;16.50;99.90
40964;DHT22;26693;51.168;4.138;2022-07-10T02:18:03;16.60;99.90
40964;DHT22;26693;51.168;4.138;2022-07-10T02:19:04;16.60;99.90
40964;DHT22;26693;51.168;4.138;2022-07-10T02:20:04;16.40;99.90
40964;DHT22;26693;51.168;4.138;2022-07-10T02:21:05;16.40;99.90
40964;DHT22;26693;51.168;4.138;2022-07-10T02:22:06;16.40;99.90
40964;DHT22;26693;51.168;4.138;2022-07-10T02:23:06;16.40;99.90
40964;DHT22;26693;51.168;4.138;2022-07-10T02:24:07;16.40;99.90
40964;DHT22;26693;51.168;4.138;2022-07-10T02:25:08;16.40;99.90
40964;DHT22;26693;51.168;4.138;2022-07-10T02:26:08;16.30;99.90
40964;DHT22;26693;51.168;4.138;2022-07-10T02:27:09;16.10;99.90
40964;DHT22;26693;51.168;4.138;2022-07-10T02:28:10;15.90;99.90
40964;DHT22;26693;51.168;4.138;2022-07-10T02:29:10;15.90;99.90
40964;DHT22;26693;51.168;4.138;2022-07-10T02:30:11;16.20;99.90
40964;DHT22;26693;51.168;4.138;2022-07-10T02:31:11;16.40;99.90
40964;DHT22;26693;51.168;4.138;2022-07-10T02:32:12;16.50;99.90
40964;DHT22;26693;51.168;4.138;2022-07-10T02:33:13;16.60;99.90
40964;DHT22;26693;51.168;4.138;2022-07-10T02:34:13;16.70;99.90
40964;DHT22;26693;51.168;4.138;2022-07-10T02:35:14;16.70;99.90
40964;DHT22;26693;51.168;4.138;2022-07-10T02:36:15;16.50;99.90
40964;DHT22;26693;51.168;4.138;2022-07-10T02:37:15;16.60;99.90
40964;DHT22;26693;51.168;4.138;2022-07-10T02:38:16;16.70;99.90
40964;DHT22;26693;51.168;4.138;2022-07-10T02:39:16;16.70;99.90
40964;DHT22;26693;51.168;4.138;2022-07-10T02:40:17;16.80;99.90
40964;DHT22;26693;51.168;4.138;2022-07-10T02:41:18;16.90;99.90
40964;DHT22;26693;51.168;4.138;2022-07-10T02:42:18;17.00;99.90
40964;DHT22;26693;51.168;4.138;2022-07-10T02:43:18;16.70;99.90
40964;DHT22;26693;51.168;4.138;2022-07-10T02:44:19;16.70;99.90
40964;DHT22;26693;51.168;4.138;2022-07-10T02:45:20;16.30;99.90
40964;DHT22;26693;51.168;4.138;2022-07-10T02:46:20;16.50;99.90
40964;DHT22;26693;51.168;4.138;2022-07-10T02:47:21;16.70;99.90
40964;DHT22;26693;51.168;4.138;2022-07-10T02:48:21;16.80;99.90
40964;DHT22;26693;51.168;4.138;2022-07-10T02:49:22;16.80;99.90
40964;DHT22;26693;51.168;4.138;2022-07-10T02:50:22;16.60;99.90
40964;DHT22;26693;51.168;4.138;2022-07-10T02:51:23;16.80;99.90
40964;DHT22;26693;51.168;4.138;2022-07-10T02:52:23;16.90;99.90
40964;DHT22;26693;51.168;4.138;2022-07-10T02:53:24;16.90;99.90
40964;DHT22;26693;51.168;4.138;2022-07-10T02:54:24;17.00;99.90
40964;DHT22;26693;51.168;4.138;2022-07-10T02:55:25;17.10;99.90
40964;DHT22;26693;51.168;4.138;2022-07-10T02:56:25;17.00;99.90
40964;DHT22;26693;51.168;4.138;2022-07-10T02:57:26;17.00;99.90
40964;DHT22;26693;51.168;4.138;2022-07-10T02:58:28;17.00;99.90
40964;DHT22;26693;51.168;4.138;2022-07-10T02:59:28;17.00;99.90
40964;DHT22;26693;51.168;4.138;2022-07-10T03:00:29;16.90;99.90
40964;DHT22;26693;51.168;4.138;2022-07-10T03:01:29;16.90;99.90
40964;DHT22;26693;51.168;4.138;2022-07-10T03:02:30;16.90;99.90
40964;DHT22;26693;51.168;4.138;2022-07-10T03:03:30;16.90;99.90
40964;DHT22;26693;51.168;4.138;2022-07-10T03:04:31;16.80;99.90
40964;DHT22;26693;51.168;4.138;2022-07-10T03:05:31;16.70;99.90
40964;DHT22;26693;51.168;4.138;2022-07-10T03:06:32;16.70;99.90
40964;DHT22;26693;51.168;4.138;2022-07-10T03:07:33;16.70;99.90
40964;DHT22;26693;51.168;4.138;2022-07-10T03:08:33;16.60;99.90
40964;DHT22;26693;51.168;4.138;2022-07-10T03:09:34;16.70;99.90
40964;DHT22;26693;51.168;4.138;2022-07-10T03:10:34;16.70;99.90
40964;DHT22;26693;51.168;4.138;2022-07-10T03:11:35;16.70;99.90
40964;DHT22;26693;51.168;4.138;2022-07-10T03:12:36;16.70;99.90
40964;DHT22;26693;51.168;4.138;2022-07-10T03:13:37;16.70;99.90
40964;DHT22;26693;51.168;4.138;2022-07-10T03:14:37;16.80;99.90
40964;DHT22;26693;51.168;4.138;2022-07-10T03:15:38;16.90;99.90
40964;DHT22;26693;51.168;4.138;2022-07-10T03:16:38;16.90;99.90
40964;DHT22;26693;51.168;4.138;2022-07-10T03:17:39;16.90;99.90
40964;DHT22;26693;51.168;4.138;2022-07-10T03:18:40;16.90;99.90
40964;DHT22;26693;51.168;4.138;2022-07-10T03:19:40;16.80;99.90
40964;DHT22;26693;51.168;4.138;2022-07-10T03:20:41;16.80;99.90
40964;DHT22;26693;51.168;4.138;2022-07-10T03:21:41;16.70;99.90
40964;DHT22;26693;51.168;4.138;2022-07-10T03:22:42;16.70;99.90
40964;DHT22;26693;51.168;4.138;2022-07-10T03:23:42;16.70;99.90
40964;DHT22;26693;51.168;4.138;2022-07-10T03:24:43;16.70;99.90
40964;DHT22;26693;51.168;4.138;2022-07-10T03:25:46;16.80;99.90
40964;DHT22;26693;51.168;4.138;2022-07-10T03:26:47;16.70;99.90
40964;DHT22;26693;51.168;4.138;2022-07-10T03:27:47;16.70;99.90
40964;DHT22;26693;51.168;4.138;2022-07-10T03:28:48;16.70;99.90
40964;DHT22;26693;51.168;4.138;2022-07-10T03:29:48;16.70;99.90
40964;DHT22;26693;51.168;4.138;2022-07-10T03:30:49;16.70;99.90
40964;DHT22;26693;51.168;4.138;2022-07-10T03:31:50;16.80;99.90
40964;DHT22;26693;51.168;4.138;2022-07-10T03:32:51;16.60;99.90
40964;DHT22;26693;51.168;4.138;2022-07-10T03:33:51;16.30;99.90
40964;DHT22;26693;51.168;4.138;2022-07-10T03:34:53;16.40;99.90
40964;DHT22;26693;51.168;4.138;2022-07-10T03:35:53;16.40;99.90
40964;DHT22;26693;51.168;4.138;2022-07-10T03:36:54;16.20;99.90
40964;DHT22;26693;51.168;4.138;2022-07-10T03:37:54;16.20;99.90
40964;DHT22;26693;51.168;4.138;2022-07-10T03:38:55;15.90;99.90
40964;DHT22;26693;51.168;4.138;2022-07-10T03:39:55;16.00;99.90
40964;DHT22;26693;51.168;4.138;2022-07-10T03:40:56;16.20;99.90
40964;DHT22;26693;51.168;4.138;2022-07-10T03:41:57;16.10;99.90
40964;DHT22;26693;51.168;4.138;2022-07-10T03:42:57;16.10;99.90
40964;DHT22;26693;51.168;4.138;2022-07-10T03:43:58;16.00;99.90
40964;DHT22;26693;51.168;4.138;2022-07-10T03:44:58;16.20;99.90
40964;DHT22;26693;51.168;4.138;2022-07-10T03:45:59;16.30;99.90
40964;DHT22;26693;51.168;4.138;2022-07-10T03:46:59;16.40;99.90
40964;DHT22;26693;51.168;4.138;2022-07-10T03:48:00;16.40;99.90
40964;DHT22;26693;51.168;4.138;2022-07-10T03:49:00;16.40;99.90
40964;DHT22;26693;51.168;4.138;2022-07-10T03:50:01;16.30;99.90
40964;DHT22;26693;51.168;4.138;2022-07-10T03:51:02;16.30;99.90
40964;DHT22;26693;51.168;4.138;2022-07-10T03:52:03;16.30;99.90
40964;DHT22;26693;51.168;4.138;2022-07-10T03:53:03;16.20;99.90
40964;DHT22;26693;51.168;4.138;2022-07-10T03:54:04;16.10;99.90
40964;DHT22;26693;51.168;4.138;2022-07-10T03:55:04;16.00;99.90
40964;DHT22;26693;51.168;4.138;2022-07-10T03:56:05;15.90;99.90
40964;DHT22;26693;51.168;4.138;2022-07-10T03:57:06;15.90;99.90
40964;DHT22;26693;51.168;4.138;2022-07-10T03:58:25;15.90;99.90
40964;DHT22;26693;51.168;4.138;2022-07-10T03:59:25;15.90;99.90
40964;DHT22;26693;51.168;4.138;2022-07-10T04:00:26;15.80;99.90
40964;DHT22;26693;51.168;4.138;2022-07-10T04:01:27;15.90;99.90
40964;DHT22;26693;51.168;4.138;2022-07-10T04:02:27;15.80;99.90
40964;DHT22;26693;51.168;4.138;2022-07-10T04:03:28;15.90;99.90
40964;DHT22;26693;51.168;4.138;2022-07-10T04:04:28;16.00;99.90
40964;DHT22;26693;51.168;4.138;2022-07-10T04:05:29;16.00;99.90
40964;DHT22;26693;51.168;4.138;2022-07-10T04:06:30;16.10;99.90
40964;DHT22;26693;51.168;4.138;2022-07-10T04:07:30;16.10;99.90
40964;DHT22;26693;51.168;4.138;2022-07-10T04:08:31;16.20;99.90
40964;DHT22;26693;51.168;4.138;2022-07-10T04:09:31;16.20;99.90
40964;DHT22;26693;51.168;4.138;2022-07-10T04:10:32;16.10;99.90
40964;DHT22;26693;51.168;4.138;2022-07-10T04:11:33;16.00;99.90
40964;DHT22;26693;51.168;4.138;2022-07-10T04:12:33;15.90;99.90
40964;DHT22;26693;51.168;4.138;2022-07-10T04:13:34;15.80;99.90
40964;DHT22;26693;51.168;4.138;2022-07-10T04:14:34;15.80;99.90
40964;DHT22;26693;51.168;4.138;2022-07-10T04:15:35;15.80;99.90
40964;DHT22;26693;51.168;4.138;2022-07-10T04:16:35;15.80;99.90
40964;DHT22;26693;51.168;4.138;2022-07-10T04:17:36;15.70;99.90
40964;DHT22;26693;51.168;4.138;2022-07-10T04:18:36;15.90;99.90
40964;DHT22;26693;51.168;4.138;2022-07-10T04:19:37;15.90;99.90
40964;DHT22;26693;51.168;4.138;2022-07-10T04:20:38;16.00;99.90
40964;DHT22;26693;51.168;4.138;2022-07-10T04:21:38;16.10;99.90
40964;DHT22;26693;51.168;4.138;2022-07-10T04:22:39;16.20;99.90
40964;DHT22;26693;51.168;4.138;2022-07-10T04:23:39;16.20;99.90
40964;DHT22;26693;51.168;4.138;2022-07-10T04:24:40;16.20;99.90
40964;DHT22;26693;51.168;4.138;2022-07-10T04:25:40;16.20;99.90
40964;DHT22;26693;51.168;4.138;2022-07-10T04:26:41;16.10;99.90
40964;DHT22;26693;51.168;4.138;2022-07-10T04:27:41;16.10;99.90
40964;DHT22;26693;51.168;4.138;2022-07-10T04:28:42;16.10;99.90
40964;DHT22;26693;51.168;4.138;2022-07-10T04:29:43;16.20;99.90
40964;DHT22;26693;51.168;4.138;2022-07-10T04:30:43;16.20;99.90
40964;DHT22;26693;51.168;4.138;2022-07-10T04:31:44;16.10;99.90
40964;DHT22;26693;51.168;4.138;2022-07-10T04:32:47;16.10;99.90
40964;DHT22;26693;51.168;4.138;2022-07-10T04:33:48;16.00;99.90
40964;DHT22;26693;51.168;4.138;2022-07-10T04:34:48;16.10;99.90
40964;DHT22;26693;51.168;4.138;2022-07-10T04:35:49;16.20;99.90
40964;DHT22;26693;51.168;4.138;2022-07-10T04:36:50;16.10;99.90
40964;DHT22;26693;51.168;4.138;2022-07-10T04:37:50;16.20;99.90
40964;DHT22;26693;51.168;4.138;2022-07-10T04:38:51;16.20;99.90
40964;DHT22;26693;51.168;4.138;2022-07-10T04:39:51;16.10;99.90
40964;DHT22;26693;51.168;4.138;2022-07-10T04:40:52;16.00;99.90
40964;DHT22;26693;51.168;4.138;2022-07-10T04:41:52;16.00;99.90
40964;DHT22;26693;51.168;4.138;2022-07-10T04:42:53;16.00;99.90
40964;DHT22;26693;51.168;4.138;2022-07-10T04:43:53;16.00;99.90
40964;DHT22;26693;51.168;4.138;2022-07-10T04:44:54;16.00;99.90
40964;DHT22;26693;51.168;4.138;2022-07-10T04:45:54;16.00;99.90
40964;DHT22;26693;51.168;4.138;2022-07-10T04:46:58;16.10;99.90
40964;DHT22;26693;51.168;4.138;2022-07-10T04:47:58;16.10;99.90
40964;DHT22;26693;51.168;4.138;2022-07-10T04:48:59;16.00;99.90
40964;DHT22;26693;51.168;4.138;2022-07-10T04:50:00;16.00;99.90
40964;DHT22;26693;51.168;4.138;2022-07-10T04:51:00;16.10;99.90
40964;DHT22;26693;51.168;4.138;2022-07-10T04:52:01;16.10;99.90
40964;DHT22;26693;51.168;4.138;2022-07-10T04:53:01;16.10;99.90
40964;DHT22;26693;51.168;4.138;2022-07-10T04:54:02;16.10;99.90
40964;DHT22;26693;51.168;4.138;2022-07-10T04:55:02;16.10;99.90
40964;DHT22;26693;51.168;4.138;2022-07-10T04:56:03;16.10;99.90
40964;DHT22;26693;51.168;4.138;2022-07-10T04:57:04;16.00;99.90
40964;DHT22;26693;51.168;4.138;2022-07-10T04:58:04;16.10;99.90
40964;DHT22;26693;51.168;4.138;2022-07-10T04:59:05;16.10;99.90
40964;DHT22;26693;51.168;4.138;2022-07-10T05:00:06;16.10;99.90
40964;DHT22;26693;51.168;4.138;2022-07-10T05:01:07;16.00;99.90
40964;DHT22;26693;51.168;4.138;2022-07-10T05:02:07;16.00;99.90
40964;DHT22;26693;51.168;4.138;2022-07-10T05:03:08;15.90;99.90
40964;DHT22;26693;51.168;4.138;2022-07-10T05:04:09;15.90;99.90
40964;DHT22;26693;51.168;4.138;2022-07-10T05:05:09;15.90;99.90
40964;DHT22;26693;51.168;4.138;2022-07-10T05:06:10;15.80;99.90
40964;DHT22;26693;51.168;4.138;2022-07-10T05:07:10;15.80;99.90
40964;DHT22;26693;51.168;4.138;2022-07-10T05:08:11;15.90;99.90
40964;DHT22;26693;51.168;4.138;2022-07-10T05:09:11;15.80;99.90
40964;DHT22;26693;51.168;4.138;2022-07-10T05:10:12;16.00;99.90
40964;DHT22;26693;51.168;4.138;2022-07-10T05:11:12;15.90;99.90
40964;DHT22;26693;51.168;4.138;2022-07-10T05:12:13;15.90;99.90
40964;DHT22;26693;51.168;4.138;2022-07-10T05:13:13;15.90;99.90
40964;DHT22;26693;51.168;4.138;2022-07-10T05:14:14;15.90;99.90
40964;DHT22;26693;51.168;4.138;2022-07-10T05:15:16;15.80;99.90
40964;DHT22;26693;51.168;4.138;2022-07-10T05:16:17;15.70;99.90
40964;DHT22;26693;51.168;4.138;2022-07-10T05:17:18;15.60;99.90
40964;DHT22;26693;51.168;4.138;2022-07-10T05:18:18;15.60;99.90
40964;DHT22;26693;51.168;4.138;2022-07-10T05:19:19;15.60;99.90
40964;DHT22;26693;51.168;4.138;2022-07-10T05:20:19;15.50;99.90
40964;DHT22;26693;51.168;4.138;2022-07-10T05:21:20;15.50;99.90
40964;DHT22;26693;51.168;4.138;2022-07-10T05:22:21;15.50;99.90
40964;DHT22;26693;51.168;4.138;2022-07-10T05:23:21;15.50;99.90
40964;DHT22;26693;51.168;4.138;2022-07-10T05:24:22;15.60;99.90
40964;DHT22;26693;51.168;4.138;2022-07-10T05:25:22;15.60;99.90
40964;DHT22;26693;51.168;4.138;2022-07-10T05:26:26;15.60;99.90
40964;DHT22;26693;51.168;4.138;2022-07-10T05:27:27;15.60;99.90
40964;DHT22;26693;51.168;4.138;2022-07-10T05:28:27;15.60;99.90
40964;DHT22;26693;51.168;4.138;2022-07-10T05:29:28;15.60;99.90
40964;DHT22;26693;51.168;4.138;2022-07-10T05:30:28;15.70;99.90
40964;DHT22;26693;51.168;4.138;2022-07-10T05:31:29;15.70;99.90
40964;DHT22;26693;51.168;4.138;2022-07-10T05:32:29;15.70;99.90
40964;DHT22;26693;51.168;4.138;2022-07-10T05:33:31;15.70;99.90
40964;DHT22;26693;51.168;4.138;2022-07-10T05:34:32;15.80;99.90
40964;DHT22;26693;51.168;4.138;2022-07-10T05:35:33;15.90;99.90
40964;DHT22;26693;51.168;4.138;2022-07-10T05:36:34;16.00;99.90
40964;DHT22;26693;51.168;4.138;2022-07-10T05:37:34;16.10;99.90
40964;DHT22;26693;51.168;4.138;2022-07-10T05:38:35;16.30;99.90
40964;DHT22;26693;51.168;4.138;2022-07-10T05:39:35;16.30;99.90
40964;DHT22;26693;51.168;4.138;2022-07-10T05:40:36;16.40;99.90
40964;DHT22;26693;51.168;4.138;2022-07-10T05:41:36;16.40;99.90
40964;DHT22;26693;51.168;4.138;2022-07-10T05:42:37;16.30;99.90
40964;DHT22;26693;51.168;4.138;2022-07-10T05:43:37;16.40;99.90
40964;DHT22;26693;51.168;4.138;2022-07-10T05:44:38;16.50;99.90
40964;DHT22;26693;51.168;4.138;2022-07-10T05:45:38;16.40;99.90
40964;DHT22;26693;51.168;4.138;2022-07-10T05:46:39;16.50;99.90
40964;DHT22;26693;51.168;4.138;2022-07-10T05:47:40;16.70;99.90
40964;DHT22;26693;51.168;4.138;2022-07-10T05:48:42;16.70;99.90
40964;DHT22;26693;51.168;4.138;2022-07-10T05:49:43;16.80;99.90
40964;DHT22;26693;51.168;4.138;2022-07-10T05:50:43;16.90;99.90
40964;DHT22;26693;51.168;4.138;2022-07-10T05:51:44;17.00;99.90
40964;DHT22;26693;51.168;4.138;2022-07-10T05:52:44;17.00;99.90
40964;DHT22;26693;51.168;4.138;2022-07-10T05:53:45;17.00;99.90
40964;DHT22;26693;51.168;4.138;2022-07-10T05:54:45;17.00;99.90
40964;DHT22;26693;51.168;4.138;2022-07-10T05:55:46;17.10;99.90
40964;DHT22;26693;51.168;4.138;2022-07-10T05:56:47;17.10;99.90
40964;DHT22;26693;51.168;4.138;2022-07-10T05:57:48;16.90;99.90
40964;DHT22;26693;51.168;4.138;2022-07-10T05:58:49;16.80;99.90
40964;DHT22;26693;51.168;4.138;2022-07-10T05:59:50;16.70;99.90
40964;DHT22;26693;51.168;4.138;2022-07-10T06:00:50;16.70;99.90
40964;DHT22;26693;51.168;4.138;2022-07-10T06:01:51;16.80;99.90
40964;DHT22;26693;51.168;4.138;2022-07-10T06:02:51;16.80;99.90
40964;DHT22;26693;51.168;4.138;2022-07-10T06:03:52;16.70;99.90
40964;DHT22;26693;51.168;4.138;2022-07-10T06:04:53;16.70;99.90
40964;DHT22;26693;51.168;4.138;2022-07-10T06:05:53;16.60;99.90
40964;DHT22;26693;51.168;4.138;2022-07-10T06:06:54;16.80;99.90
40964;DHT22;26693;51.168;4.138;2022-07-10T06:07:54;16.80;99.90
40964;DHT22;26693;51.168;4.138;2022-07-10T06:08:55;16.80;99.90
40964;DHT22;26693;51.168;4.138;2022-07-10T06:09:55;16.80;99.90
40964;DHT22;26693;51.168;4.138;2022-07-10T06:10:56;16.80;99.90
40964;DHT22;26693;51.168;4.138;2022-07-10T06:11:56;16.90;99.90
40964;DHT22;26693;51.168;4.138;2022-07-10T06:12:57;16.70;99.90
40964;DHT22;26693;51.168;4.138;2022-07-10T06:13:58;16.70;99.90
40964;DHT22;26693;51.168;4.138;2022-07-10T06:14:58;16.70;99.90
40964;DHT22;26693;51.168;4.138;2022-07-10T06:15:59;16.80;99.90
40964;DHT22;26693;51.168;4.138;2022-07-10T06:16:59;16.80;99.90
40964;DHT22;26693;51.168;4.138;2022-07-10T06:18:00;16.90;99.90
40964;DHT22;26693;51.168;4.138;2022-07-10T06:19:00;17.00;99.90
40964;DHT22;26693;51.168;4.138;2022-07-10T06:20:01;16.90;99.90
40964;DHT22;26693;51.168;4.138;2022-07-10T06:21:02;16.80;99.90
40964;DHT22;26693;51.168;4.138;2022-07-10T06:22:02;16.70;99.90
40964;DHT22;26693;51.168;4.138;2022-07-10T06:23:22;16.60;99.90